sensor_id;sensor_type;location;lat;lon;timestamp;temperature;humidity
4578;DHT22;2301;47.354;8.528;2022-10-22T00:01:03;18.70;95.00
4578;DHT22;2301;47.354;8.528;2022-10-22T00:03:31;18.70;95.20
4578;DHT22;2301;47.354;8.528;2022-10-22T00:05:58;18.70;95.10
4578;DHT22;2301;47.354;8.528;2022-10-22T00:08:25;18.80;95.10
4578;DHT22;2301;47.354;8.528;2022-10-22T00:10:52;18.80;94.90
4578;DHT22;2301;47.354;8.528;2022-10-22T00:13:19;18.80;95.00
4578;DHT22;2301;47.354;8.528;2022-10-22T00:15:47;18.80;94.90
4578;DHT22;2301;47.354;8.528;2022-10-22T00:18:14;18.90;94.90
4578;DHT22;2301;47.354;8.528;2022-10-22T00:20:41;18.90;94.80
4578;DHT22;2301;47.354;8.528;2022-10-22T00:23:08;18.90;94.80
4578;DHT22;2301;47.354;8.528;2022-10-22T00:25:35;18.90;94.80
4578;DHT22;2301;47.354;8.528;2022-10-22T00:28:03;18.90;94.70
4578;DHT22;2301;47.354;8.528;2022-10-22T00:30:30;18.90;94.50
4578;DHT22;2301;47.354;8.528;2022-10-22T00:32:58;18.90;94.40
4578;DHT22;2301;47.354;8.528;2022-10-22T00:35:25;18.90;94.40
4578;DHT22;2301;47.354;8.528;2022-10-22T00:37:52;18.90;94.50
4578;DHT22;2301;47.354;8.528;2022-10-22T00:40:19;18.90;94.50
4578;DHT22;2301;47.354;8.528;2022-10-22T00:42:46;18.90;94.40
4578;DHT22;2301;47.354;8.528;2022-10-22T00:45:22;18.80;94.30
4578;DHT22;2301;47.354;8.528;2022-10-22T00:47:53;18.80;94.40
4578;DHT22;2301;47.354;8.528;2022-10-22T00:50:25;18.80;94.40
4578;DHT22;2301;47.354;8.528;2022-10-22T00:52:54;18.80;94.30
4578;DHT22;2301;47.354;8.528;2022-10-22T00:55:21;18.80;94.20
4578;DHT22;2301;47.354;8.528;2022-10-22T00:57:50;18.80;94.10
4578;DHT22;2301;47.354;8.528;2022-10-22T01:00:18;18.80;94.20
4578;DHT22;2301;47.354;8.528;2022-10-22T01:02:45;18.80;94.20
4578;DHT22;2301;47.354;8.528;2022-10-22T01:05:12;18.80;94.20
4578;DHT22;2301;47.354;8.528;2022-10-22T01:07:43;18.70;94.20
4578;DHT22;2301;47.354;8.528;2022-10-22T01:10:19;18.80;94.10
4578;DHT22;2301;47.354;8.528;2022-10-22T01:12:54;18.80;94.10
4578;DHT22;2301;47.354;8.528;2022-10-22T01:15:32;18.70;94.20
4578;DHT22;2301;47.354;8.528;2022-10-22T01:18:05;18.70;94.30
4578;DHT22;2301;47.354;8.528;2022-10-22T01:20:56;18.80;94.40
4578;DHT22;2301;47.354;8.528;2022-10-22T01:23:51;18.80;94.40
4578;DHT22;2301;47.354;8.528;2022-10-22T01:26:26;18.80;94.40
4578;DHT22;2301;47.354;8.528;2022-10-22T01:29:01;18.80;94.30
4578;DHT22;2301;47.354;8.528;2022-10-22T01:31:37;18.80;94.30
4578;DHT22;2301;47.354;8.528;2022-10-22T01:34:07;18.80;94.30
4578;DHT22;2301;47.354;8.528;2022-10-22T01:36:36;18.80;94.30
4578;DHT22;2301;47.354;8.528;2022-10-22T01:39:04;18.80;94.30
4578;DHT22;2301;47.354;8.528;2022-10-22T01:41:33;18.80;94.20
4578;DHT22;2301;47.354;8.528;2022-10-22T01:44:02;18.80;94.30
4578;DHT22;2301;47.354;8.528;2022-10-22T01:46:29;18.90;94.30
4578;DHT22;2301;47.354;8.528;2022-10-22T01:49:09;18.90;94.20
4578;DHT22;2301;47.354;8.528;2022-10-22T01:51:48;18.90;94.60
4578;DHT22;2301;47.354;8.528;2022-10-22T01:54:27;18.90;94.40
4578;DHT22;2301;47.354;8.528;2022-10-22T01:57:06;18.90;94.20
4578;DHT22;2301;47.354;8.528;2022-10-22T01:59:43;18.90;94.20
4578;DHT22;2301;47.354;8.528;2022-10-22T02:02:24;18.90;94.20
4578;DHT22;2301;47.354;8.528;2022-10-22T02:04:57;18.90;94.10
4578;DHT22;2301;47.354;8.528;2022-10-22T02:07:28;18.90;94.00
4578;DHT22;2301;47.354;8.528;2022-10-22T02:09:57;18.90;94.10
4578;DHT22;2301;47.354;8.528;2022-10-22T02:12:27;18.80;94.00
4578;DHT22;2301;47.354;8.528;2022-10-22T02:14:56;18.80;94.00
4578;DHT22;2301;47.354;8.528;2022-10-22T02:17:26;18.80;94.10
4578;DHT22;2301;47.354;8.528;2022-10-22T02:19:56;18.80;94.40
4578;DHT22;2301;47.354;8.528;2022-10-22T02:22:25;18.80;94.10
4578;DHT22;2301;47.354;8.528;2022-10-22T02:24:53;18.80;94.10
4578;DHT22;2301;47.354;8.528;2022-10-22T02:27:25;18.80;94.30
4578;DHT22;2301;47.354;8.528;2022-10-22T02:30:00;18.80;94.30
4578;DHT22;2301;47.354;8.528;2022-10-22T02:32:31;18.80;94.20
4578;DHT22;2301;47.354;8.528;2022-10-22T02:35:00;18.80;94.20
4578;DHT22;2301;47.354;8.528;2022-10-22T02:37:27;18.90;94.30
4578;DHT22;2301;47.354;8.528;2022-10-22T02:39:55;18.90;94.30
4578;DHT22;2301;47.354;8.528;2022-10-22T02:42:23;18.90;94.20
4578;DHT22;2301;47.354;8.528;2022-10-22T02:44:50;18.90;94.00
4578;DHT22;2301;47.354;8.528;2022-10-22T02:47:19;18.90;94.10
4578;DHT22;2301;47.354;8.528;2022-10-22T02:49:46;18.90;94.10
4578;DHT22;2301;47.354;8.528;2022-10-22T02:52:13;18.90;94.10
4578;DHT22;2301;47.354;8.528;2022-10-22T02:54:40;18.90;93.80
4578;DHT22;2301;47.354;8.528;2022-10-22T02:57:07;18.80;93.70
4578;DHT22;2301;47.354;8.528;2022-10-22T02:59:34;18.80;93.80
4578;DHT22;2301;47.354;8.528;2022-10-22T03:02:00;18.80;93.70
4578;DHT22;2301;47.354;8.528;2022-10-22T03:04:29;18.80;93.80
4578;DHT22;2301;47.354;8.528;2022-10-22T03:06:56;18.80;93.80
4578;DHT22;2301;47.354;8.528;2022-10-22T03:09:23;18.80;93.80
4578;DHT22;2301;47.354;8.528;2022-10-22T03:11:50;18.80;93.80
4578;DHT22;2301;47.354;8.528;2022-10-22T03:14:18;18.80;93.90
4578;DHT22;2301;47.354;8.528;2022-10-22T03:16:45;18.80;93.80
4578;DHT22;2301;47.354;8.528;2022-10-22T03:19:12;18.80;93.70
4578;DHT22;2301;47.354;8.528;2022-10-22T03:21:43;18.80;93.30
4578;DHT22;2301;47.354;8.528;2022-10-22T03:24:13;18.80;93.40
4578;DHT22;2301;47.354;8.528;2022-10-22T03:26:41;18.70;93.30
4578;DHT22;2301;47.354;8.528;2022-10-22T03:29:09;18.70;93.40
4578;DHT22;2301;47.354;8.528;2022-10-22T03:31:37;18.70;93.60
4578;DHT22;2301;47.354;8.528;2022-10-22T03:34:04;18.70;93.40
4578;DHT22;2301;47.354;8.528;2022-10-22T03:36:31;18.70;93.40
4578;DHT22;2301;47.354;8.528;2022-10-22T03:39:00;18.80;93.50
4578;DHT22;2301;47.354;8.528;2022-10-22T03:41:28;18.80;93.40
4578;DHT22;2301;47.354;8.528;2022-10-22T03:43:55;18.80;93.40
4578;DHT22;2301;47.354;8.528;2022-10-22T03:46:22;18.80;93.40
4578;DHT22;2301;47.354;8.528;2022-10-22T03:48:49;18.80;93.50
4578;DHT22;2301;47.354;8.528;2022-10-22T03:51:16;18.80;93.60
4578;DHT22;2301;47.354;8.528;2022-10-22T03:53:43;18.80;93.60
4578;DHT22;2301;47.354;8.528;2022-10-22T03:56:12;18.80;93.70
4578;DHT22;2301;47.354;8.528;2022-10-22T03:58:40;18.80;93.60
4578;DHT22;2301;47.354;8.528;2022-10-22T04:01:08;18.80;93.60
4578;DHT22;2301;47.354;8.528;2022-10-22T04:03:35;18.80;93.60
4578;DHT22;2301;47.354;8.528;2022-10-22T04:06:03;18.80;93.40
4578;DHT22;2301;47.354;8.528;2022-10-22T04:08:30;18.80;93.50
4578;DHT22;2301;47.354;8.528;2022-10-22T04:10:57;18.80;93.50
4578;DHT22;2301;47.354;8.528;2022-10-22T04:13:26;18.80;93.50
4578;DHT22;2301;47.354;8.528;2022-10-22T04:15:53;18.80;93.50
4578;DHT22;2301;47.354;8.528;2022-10-22T04:18:21;18.80;93.50
4578;DHT22;2301;47.354;8.528;2022-10-22T04:20:50;18.80;93.40
4578;DHT22;2301;47.354;8.528;2022-10-22T04:23:17;18.80;93.50
4578;DHT22;2301;47.354;8.528;2022-10-22T04:25:44;18.80;93.60
4578;DHT22;2301;47.354;8.528;2022-10-22T04:28:11;18.80;93.70
4578;DHT22;2301;47.354;8.528;2022-10-22T04:30:39;18.90;93.80
4578;DHT22;2301;47.354;8.528;2022-10-22T04:33:06;18.80;93.60
4578;DHT22;2301;47.354;8.528;2022-10-22T04:35:37;18.90;93.70
4578;DHT22;2301;47.354;8.528;2022-10-22T04:38:04;18.80;93.50
4578;DHT22;2301;47.354;8.528;2022-10-22T04:40:31;18.80;93.40
4578;DHT22;2301;47.354;8.528;2022-10-22T04:42:58;18.80;93.50
4578;DHT22;2301;47.354;8.528;2022-10-22T04:45:25;18.80;93.60
4578;DHT22;2301;47.354;8.528;2022-10-22T04:47:53;18.80;93.50
4578;DHT22;2301;47.354;8.528;2022-10-22T04:50:20;18.80;93.50
4578;DHT22;2301;47.354;8.528;2022-10-22T04:52:47;18.80;93.40
4578;DHT22;2301;47.354;8.528;2022-10-22T04:55:14;18.80;93.30
4578;DHT22;2301;47.354;8.528;2022-10-22T04:57:41;18.80;93.20
4578;DHT22;2301;47.354;8.528;2022-10-22T05:00:09;18.80;93.30
4578;DHT22;2301;47.354;8.528;2022-10-22T05:02:36;18.70;93.20
4578;DHT22;2301;47.354;8.528;2022-10-22T05:05:04;18.70;93.20
4578;DHT22;2301;47.354;8.528;2022-10-22T05:07:31;18.70;93.30
4578;DHT22;2301;47.354;8.528;2022-10-22T05:09:58;18.70;93.30
4578;DHT22;2301;47.354;8.528;2022-10-22T05:12:26;18.60;93.30
4578;DHT22;2301;47.354;8.528;2022-10-22T05:14:55;18.60;93.40
4578;DHT22;2301;47.354;8.528;2022-10-22T05:17:22;18.60;93.40
4578;DHT22;2301;47.354;8.528;2022-10-22T05:19:49;18.60;93.50
4578;DHT22;2301;47.354;8.528;2022-10-22T05:22:17;18.60;93.60
4578;DHT22;2301;47.354;8.528;2022-10-22T05:24:44;18.70;93.70
4578;DHT22;2301;47.354;8.528;2022-10-22T05:27:11;18.70;93.70
4578;DHT22;2301;47.354;8.528;2022-10-22T05:29:38;18.70;93.70
4578;DHT22;2301;47.354;8.528;2022-10-22T05:32:05;18.70;93.60
4578;DHT22;2301;47.354;8.528;2022-10-22T05:34:31;18.70;93.60
4578;DHT22;2301;47.354;8.528;2022-10-22T05:37:00;18.70;93.50
4578;DHT22;2301;47.354;8.528;2022-10-22T05:39:29;18.80;93.40
4578;DHT22;2301;47.354;8.528;2022-10-22T05:41:56;18.80;93.50
4578;DHT22;2301;47.354;8.528;2022-10-22T05:44:23;18.80;93.40
4578;DHT22;2301;47.354;8.528;2022-10-22T05:46:49;18.80;93.40
4578;DHT22;2301;47.354;8.528;2022-10-22T05:49:16;18.70;93.40
4578;DHT22;2301;47.354;8.528;2022-10-22T05:51:43;18.70;93.40
4578;DHT22;2301;47.354;8.528;2022-10-22T05:54:15;18.70;93.40
4578;DHT22;2301;47.354;8.528;2022-10-22T05:56:44;18.80;93.40
4578;DHT22;2301;47.354;8.528;2022-10-22T05:59:11;18.70;93.20
4578;DHT22;2301;47.354;8.528;2022-10-22T06:01:39;18.70;93.40
4578;DHT22;2301;47.354;8.528;2022-10-22T06:04:10;18.70;93.40
4578;DHT22;2301;47.354;8.528;2022-10-22T06:06:38;18.70;93.30
4578;DHT22;2301;47.354;8.528;2022-10-22T06:09:12;18.70;93.20
4578;DHT22;2301;47.354;8.528;2022-10-22T06:11:40;18.60;92.90
4578;DHT22;2301;47.354;8.528;2022-10-22T06:14:09;18.60;92.70
4578;DHT22;2301;47.354;8.528;2022-10-22T06:16:36;18.50;92.30
4578;DHT22;2301;47.354;8.528;2022-10-22T06:19:03;18.50;92.60
4578;DHT22;2301;47.354;8.528;2022-10-22T06:21:31;18.40;92.40
4578;DHT22;2301;47.354;8.528;2022-10-22T06:23:59;18.30;92.20
4578;DHT22;2301;47.354;8.528;2022-10-22T06:26:27;18.30;92.40
4578;DHT22;2301;47.354;8.528;2022-10-22T06:28:54;18.30;92.50
4578;DHT22;2301;47.354;8.528;2022-10-22T06:31:23;18.30;92.90
4578;DHT22;2301;47.354;8.528;2022-10-22T06:33:50;18.30;92.90
4578;DHT22;2301;47.354;8.528;2022-10-22T06:36:19;18.30;92.80
4578;DHT22;2301;47.354;8.528;2022-10-22T06:38:46;18.30;92.70
4578;DHT22;2301;47.354;8.528;2022-10-22T06:41:14;18.20;92.50
4578;DHT22;2301;47.354;8.528;2022-10-22T06:43:43;18.20;92.70
4578;DHT22;2301;47.354;8.528;2022-10-22T06:46:13;18.20;92.70
4578;DHT22;2301;47.354;8.528;2022-10-22T06:48:41;18.20;92.70
4578;DHT22;2301;47.354;8.528;2022-10-22T06:51:10;18.20;92.80
4578;DHT22;2301;47.354;8.528;2022-10-22T06:53:38;18.20;92.90
4578;DHT22;2301;47.354;8.528;2022-10-22T06:56:06;18.20;93.10
4578;DHT22;2301;47.354;8.528;2022-10-22T06:58:33;18.20;92.70
4578;DHT22;2301;47.354;8.528;2022-10-22T07:01:01;18.20;92.50
4578;DHT22;2301;47.354;8.528;2022-10-22T07:03:28;18.20;92.80
4578;DHT22;2301;47.354;8.528;2022-10-22T07:05:59;18.20;92.80
4578;DHT22;2301;47.354;8.528;2022-10-22T07:08:27;18.30;92.70
4578;DHT22;2301;47.354;8.528;2022-10-22T07:10:54;18.30;92.40
4578;DHT22;2301;47.354;8.528;2022-10-22T07:13:23;18.30;92.80
4578;DHT22;2301;47.354;8.528;2022-10-22T07:15:53;18.30;92.70
4578;DHT22;2301;47.354;8.528;2022-10-22T07:18:21;18.40;93.00
4578;DHT22;2301;47.354;8.528;2022-10-22T07:20:48;18.40;92.90
4578;DHT22;2301;47.354;8.528;2022-10-22T07:23:16;18.50;92.80
4578;DHT22;2301;47.354;8.528;2022-10-22T07:25:46;18.50;92.70
4578;DHT22;2301;47.354;8.528;2022-10-22T07:28:13;18.50;92.70
4578;DHT22;2301;47.354;8.528;2022-10-22T07:30:40;18.60;92.80
4578;DHT22;2301;47.354;8.528;2022-10-22T07:33:07;18.60;92.70
4578;DHT22;2301;47.354;8.528;2022-10-22T07:35:36;18.60;92.70
4578;DHT22;2301;47.354;8.528;2022-10-22T07:38:03;18.60;93.20
4578;DHT22;2301;47.354;8.528;2022-10-22T07:40:31;18.60;93.10
4578;DHT22;2301;47.354;8.528;2022-10-22T07:42:58;18.60;93.20
4578;DHT22;2301;47.354;8.528;2022-10-22T07:45:25;18.70;93.30
4578;DHT22;2301;47.354;8.528;2022-10-22T07:47:52;18.90;93.70
4578;DHT22;2301;47.354;8.528;2022-10-22T07:50:19;19.30;93.70
4578;DHT22;2301;47.354;8.528;2022-10-22T07:52:46;19.50;92.40
4578;DHT22;2301;47.354;8.528;2022-10-22T07:55:13;20.00;92.70
4578;DHT22;2301;47.354;8.528;2022-10-22T07:57:41;20.30;92.10
4578;DHT22;2301;47.354;8.528;2022-10-22T08:00:09;20.60;91.20
4578;DHT22;2301;47.354;8.528;2022-10-22T08:02:36;20.80;91.00
4578;DHT22;2301;47.354;8.528;2022-10-22T08:05:04;21.00;90.80
4578;DHT22;2301;47.354;8.528;2022-10-22T08:07:31;21.20;90.30
4578;DHT22;2301;47.354;8.528;2022-10-22T08:09:58;21.50;88.50
4578;DHT22;2301;47.354;8.528;2022-10-22T08:12:25;21.90;86.90
4578;DHT22;2301;47.354;8.528;2022-10-22T08:14:53;22.20;85.20
4578;DHT22;2301;47.354;8.528;2022-10-22T08:17:20;22.50;84.70
4578;DHT22;2301;47.354;8.528;2022-10-22T08:19:47;22.70;81.40
4578;DHT22;2301;47.354;8.528;2022-10-22T08:22:14;22.90;80.50
4578;DHT22;2301;47.354;8.528;2022-10-22T08:24:41;23.00;79.00
4578;DHT22;2301;47.354;8.528;2022-10-22T08:27:07;23.10;79.20
4578;DHT22;2301;47.354;8.528;2022-10-22T08:29:34;23.10;79.70
4578;DHT22;2301;47.354;8.528;2022-10-22T08:32:03;23.00;79.10
4578;DHT22;2301;47.354;8.528;2022-10-22T08:34:30;22.90;78.60
4578;DHT22;2301;47.354;8.528;2022-10-22T08:36:57;22.80;78.10
4578;DHT22;2301;47.354;8.528;2022-10-22T08:39:24;22.70;78.00
4578;DHT22;2301;47.354;8.528;2022-10-22T08:41:57;22.40;76.50
4578;DHT22;2301;47.354;8.528;2022-10-22T08:44:50;22.20;78.90
4578;DHT22;2301;47.354;8.528;2022-10-22T08:47:45;22.20;79.00
4578;DHT22;2301;47.354;8.528;2022-10-22T08:50:20;22.20;79.50
4578;DHT22;2301;47.354;8.528;2022-10-22T08:52:51;22.10;79.60
4578;DHT22;2301;47.354;8.528;2022-10-22T08:55:22;22.10;79.70
4578;DHT22;2301;47.354;8.528;2022-10-22T08:57:54;22.10;79.60
4578;DHT22;2301;47.354;8.528;2022-10-22T09:00:30;22.10;79.60
4578;DHT22;2301;47.354;8.528;2022-10-22T09:03:10;22.20;79.60
4578;DHT22;2301;47.354;8.528;2022-10-22T09:05:49;22.20;78.90
4578;DHT22;2301;47.354;8.528;2022-10-22T09:08:21;22.20;78.90
4578;DHT22;2301;47.354;8.528;2022-10-22T09:10:54;22.10;78.10
4578;DHT22;2301;47.354;8.528;2022-10-22T09:13:23;22.10;78.40
4578;DHT22;2301;47.354;8.528;2022-10-22T09:15:52;22.10;78.90
4578;DHT22;2301;47.354;8.528;2022-10-22T09:18:32;22.10;78.70
4578;DHT22;2301;47.354;8.528;2022-10-22T09:21:08;22.10;78.40
4578;DHT22;2301;47.354;8.528;2022-10-22T09:23:50;22.20;78.40
4578;DHT22;2301;47.354;8.528;2022-10-22T09:26:21;22.20;78.10
4578;DHT22;2301;47.354;8.528;2022-10-22T09:28:49;22.20;77.90
4578;DHT22;2301;47.354;8.528;2022-10-22T09:31:16;22.30;78.10
4578;DHT22;2301;47.354;8.528;2022-10-22T09:33:46;22.40;78.10
4578;DHT22;2301;47.354;8.528;2022-10-22T09:36:16;22.50;77.70
4578;DHT22;2301;47.354;8.528;2022-10-22T09:38:45;22.60;76.70
4578;DHT22;2301;47.354;8.528;2022-10-22T09:41:13;22.70;75.20
4578;DHT22;2301;47.354;8.528;2022-10-22T09:43:40;22.70;75.20
4578;DHT22;2301;47.354;8.528;2022-10-22T09:46:18;22.90;76.00
4578;DHT22;2301;47.354;8.528;2022-10-22T09:48:50;23.00;75.00
4578;DHT22;2301;47.354;8.528;2022-10-22T09:51:35;23.00;73.80
4578;DHT22;2301;47.354;8.528;2022-10-22T09:54:13;23.10;74.40
4578;DHT22;2301;47.354;8.528;2022-10-22T09:56:47;23.20;73.60
4578;DHT22;2301;47.354;8.528;2022-10-22T09:59:15;23.30;73.10
4578;DHT22;2301;47.354;8.528;2022-10-22T10:01:42;23.30;73.70
4578;DHT22;2301;47.354;8.528;2022-10-22T10:04:12;23.30;73.20
4578;DHT22;2301;47.354;8.528;2022-10-22T10:06:41;23.30;73.10
4578;DHT22;2301;47.354;8.528;2022-10-22T10:09:14;23.40;73.20
4578;DHT22;2301;47.354;8.528;2022-10-22T10:11:45;23.60;72.10
4578;DHT22;2301;47.354;8.528;2022-10-22T10:14:19;23.60;71.70
4578;DHT22;2301;47.354;8.528;2022-10-22T10:16:55;23.80;70.70
4578;DHT22;2301;47.354;8.528;2022-10-22T10:19:34;23.90;70.40
4578;DHT22;2301;47.354;8.528;2022-10-22T10:22:10;24.00;70.80
4578;DHT22;2301;47.354;8.528;2022-10-22T10:24:56;24.10;71.00
4578;DHT22;2301;47.354;8.528;2022-10-22T10:27:30;24.20;71.00
4578;DHT22;2301;47.354;8.528;2022-10-22T10:30:02;24.30;70.30
4578;DHT22;2301;47.354;8.528;2022-10-22T10:32:52;24.30;70.20
4578;DHT22;2301;47.354;8.528;2022-10-22T10:35:25;24.40;69.50
4578;DHT22;2301;47.354;8.528;2022-10-22T10:38:02;24.40;69.50
4578;DHT22;2301;47.354;8.528;2022-10-22T10:40:42;24.40;68.80
4578;DHT22;2301;47.354;8.528;2022-10-22T10:43:14;24.50;67.60
4578;DHT22;2301;47.354;8.528;2022-10-22T10:45:51;24.60;67.80
4578;DHT22;2301;47.354;8.528;2022-10-22T10:48:41;24.70;67.90
4578;DHT22;2301;47.354;8.528;2022-10-22T10:51:30;24.80;68.20
4578;DHT22;2301;47.354;8.528;2022-10-22T10:54:15;24.80;68.50
4578;DHT22;2301;47.354;8.528;2022-10-22T10:56:46;25.00;66.90
4578;DHT22;2301;47.354;8.528;2022-10-22T10:59:18;25.00;66.20
4578;DHT22;2301;47.354;8.528;2022-10-22T11:02:00;25.00;66.50
4578;DHT22;2301;47.354;8.528;2022-10-22T11:07:55;25.10;66.50
4578;DHT22;2301;47.354;8.528;2022-10-22T11:10:28;25.10;66.20
4578;DHT22;2301;47.354;8.528;2022-10-22T11:13:00;25.10;66.20
4578;DHT22;2301;47.354;8.528;2022-10-22T11:15:32;25.10;65.60
4578;DHT22;2301;47.354;8.528;2022-10-22T11:18:07;25.00;64.10
4578;DHT22;2301;47.354;8.528;2022-10-22T11:20:43;25.00;64.50
4578;DHT22;2301;47.354;8.528;2022-10-22T11:23:16;24.90;64.20
4578;DHT22;2301;47.354;8.528;2022-10-22T11:25:46;24.80;64.30
4578;DHT22;2301;47.354;8.528;2022-10-22T11:28:16;24.60;64.40
4578;DHT22;2301;47.354;8.528;2022-10-22T11:30:48;24.50;64.80
4578;DHT22;2301;47.354;8.528;2022-10-22T11:33:19;24.40;65.50
4578;DHT22;2301;47.354;8.528;2022-10-22T11:35:48;24.40;65.90
4578;DHT22;2301;47.354;8.528;2022-10-22T11:38:21;24.40;65.30
4578;DHT22;2301;47.354;8.528;2022-10-22T11:40:51;24.30;65.30
4578;DHT22;2301;47.354;8.528;2022-10-22T11:43:28;24.20;65.80
4578;DHT22;2301;47.354;8.528;2022-10-22T11:46:01;24.10;66.00
4578;DHT22;2301;47.354;8.528;2022-10-22T11:48:36;24.10;66.30
4578;DHT22;2301;47.354;8.528;2022-10-22T11:51:03;24.00;65.80
4578;DHT22;2301;47.354;8.528;2022-10-22T11:53:56;23.90;66.50
4578;DHT22;2301;47.354;8.528;2022-10-22T11:56:25;23.80;67.10
4578;DHT22;2301;47.354;8.528;2022-10-22T11:58:53;23.70;67.30
4578;DHT22;2301;47.354;8.528;2022-10-22T12:01:24;23.70;67.50
4578;DHT22;2301;47.354;8.528;2022-10-22T12:06:59;23.60;67.10
4578;DHT22;2301;47.354;8.528;2022-10-22T12:09:29;23.70;67.50
4578;DHT22;2301;47.354;8.528;2022-10-22T12:12:10;23.80;67.10
4578;DHT22;2301;47.354;8.528;2022-10-22T12:14:51;23.90;66.90
4578;DHT22;2301;47.354;8.528;2022-10-22T12:17:20;23.90;67.10
4578;DHT22;2301;47.354;8.528;2022-10-22T12:19:53;23.90;66.50
4578;DHT22;2301;47.354;8.528;2022-10-22T12:22:22;24.00;65.80
4578;DHT22;2301;47.354;8.528;2022-10-22T12:24:52;23.90;66.10
4578;DHT22;2301;47.354;8.528;2022-10-22T12:27:21;23.90;66.50
4578;DHT22;2301;47.354;8.528;2022-10-22T12:29:53;23.80;67.00
4578;DHT22;2301;47.354;8.528;2022-10-22T12:32:20;23.80;66.70
4578;DHT22;2301;47.354;8.528;2022-10-22T12:34:49;23.70;67.30
4578;DHT22;2301;47.354;8.528;2022-10-22T12:37:16;23.70;68.10
4578;DHT22;2301;47.354;8.528;2022-10-22T12:39:44;23.70;68.40
4578;DHT22;2301;47.354;8.528;2022-10-22T12:42:15;23.70;68.30
4578;DHT22;2301;47.354;8.528;2022-10-22T12:44:42;23.80;67.80
4578;DHT22;2301;47.354;8.528;2022-10-22T12:47:14;23.90;67.20
4578;DHT22;2301;47.354;8.528;2022-10-22T12:49:45;24.00;65.90
4578;DHT22;2301;47.354;8.528;2022-10-22T12:52:14;24.00;65.80
4578;DHT22;2301;47.354;8.528;2022-10-22T12:54:44;24.00;65.80
4578;DHT22;2301;47.354;8.528;2022-10-22T12:57:16;24.00;65.60
4578;DHT22;2301;47.354;8.528;2022-10-22T12:59:46;23.90;65.90
4578;DHT22;2301;47.354;8.528;2022-10-22T13:02:18;23.80;66.40
4578;DHT22;2301;47.354;8.528;2022-10-22T13:05:20;23.70;66.90
4578;DHT22;2301;47.354;8.528;2022-10-22T13:07:48;23.60;67.10
4578;DHT22;2301;47.354;8.528;2022-10-22T13:10:19;23.50;67.20
4578;DHT22;2301;47.354;8.528;2022-10-22T13:12:55;23.40;67.30
4578;DHT22;2301;47.354;8.528;2022-10-22T13:15:33;23.40;67.60
4578;DHT22;2301;47.354;8.528;2022-10-22T13:18:03;23.30;67.10
4578;DHT22;2301;47.354;8.528;2022-10-22T13:20:30;23.20;67.70
4578;DHT22;2301;47.354;8.528;2022-10-22T13:22:58;23.20;68.20
4578;DHT22;2301;47.354;8.528;2022-10-22T13:25:27;23.10;68.50
4578;DHT22;2301;47.354;8.528;2022-10-22T13:27:57;23.10;68.60
4578;DHT22;2301;47.354;8.528;2022-10-22T13:30:27;23.10;68.60
4578;DHT22;2301;47.354;8.528;2022-10-22T13:32:56;23.10;68.60
4578;DHT22;2301;47.354;8.528;2022-10-22T13:35:25;23.10;68.60
4578;DHT22;2301;47.354;8.528;2022-10-22T13:37:52;23.10;69.00
4578;DHT22;2301;47.354;8.528;2022-10-22T13:40:20;23.10;68.40
4578;DHT22;2301;47.354;8.528;2022-10-22T13:42:47;23.00;66.60
4578;DHT22;2301;47.354;8.528;2022-10-22T13:45:16;22.80;66.90
4578;DHT22;2301;47.354;8.528;2022-10-22T13:47:47;22.80;67.20
4578;DHT22;2301;47.354;8.528;2022-10-22T13:50:17;22.70;66.80
4578;DHT22;2301;47.354;8.528;2022-10-22T13:52:46;22.70;66.40
4578;DHT22;2301;47.354;8.528;2022-10-22T13:55:17;22.60;65.20
4578;DHT22;2301;47.354;8.528;2022-10-22T13:57:45;22.50;65.00
4578;DHT22;2301;47.354;8.528;2022-10-22T14:00:16;22.40;65.50
4578;DHT22;2301;47.354;8.528;2022-10-22T14:02:46;22.40;66.10
4578;DHT22;2301;47.354;8.528;2022-10-22T14:05:14;22.40;65.30
4578;DHT22;2301;47.354;8.528;2022-10-22T14:07:42;22.30;65.10
4578;DHT22;2301;47.354;8.528;2022-10-22T14:10:14;22.30;65.30
4578;DHT22;2301;47.354;8.528;2022-10-22T14:12:41;22.30;65.50
4578;DHT22;2301;47.354;8.528;2022-10-22T14:15:10;22.20;65.40
4578;DHT22;2301;47.354;8.528;2022-10-22T14:17:40;22.20;65.70
4578;DHT22;2301;47.354;8.528;2022-10-22T14:20:14;22.10;65.90
4578;DHT22;2301;47.354;8.528;2022-10-22T14:22:44;22.10;66.80
4578;DHT22;2301;47.354;8.528;2022-10-22T14:25:13;22.10;67.70
4578;DHT22;2301;47.354;8.528;2022-10-22T14:27:40;22.10;68.40
4578;DHT22;2301;47.354;8.528;2022-10-22T14:30:08;22.10;68.70
4578;DHT22;2301;47.354;8.528;2022-10-22T14:32:35;22.10;69.40
4578;DHT22;2301;47.354;8.528;2022-10-22T14:35:03;22.10;68.90
4578;DHT22;2301;47.354;8.528;2022-10-22T14:37:30;22.00;68.40
4578;DHT22;2301;47.354;8.528;2022-10-22T14:39:57;21.90;68.20
4578;DHT22;2301;47.354;8.528;2022-10-22T14:42:27;21.90;68.30
4578;DHT22;2301;47.354;8.528;2022-10-22T14:44:54;21.90;68.80
4578;DHT22;2301;47.354;8.528;2022-10-22T14:47:21;21.90;69.00
4578;DHT22;2301;47.354;8.528;2022-10-22T14:49:48;21.90;69.00
4578;DHT22;2301;47.354;8.528;2022-10-22T14:52:17;21.90;69.20
4578;DHT22;2301;47.354;8.528;2022-10-22T14:54:44;21.90;69.40
4578;DHT22;2301;47.354;8.528;2022-10-22T14:57:13;21.80;69.70
4578;DHT22;2301;47.354;8.528;2022-10-22T14:59:41;21.90;69.40
4578;DHT22;2301;47.354;8.528;2022-10-22T15:02:10;21.90;69.40
4578;DHT22;2301;47.354;8.528;2022-10-22T15:04:38;21.90;70.00
4578;DHT22;2301;47.354;8.528;2022-10-22T15:07:05;21.80;70.50
4578;DHT22;2301;47.354;8.528;2022-10-22T15:09:34;21.80;69.40
4578;DHT22;2301;47.354;8.528;2022-10-22T15:12:01;21.80;70.20
4578;DHT22;2301;47.354;8.528;2022-10-22T15:14:27;21.80;69.60
4578;DHT22;2301;47.354;8.528;2022-10-22T15:16:54;21.80;69.70
4578;DHT22;2301;47.354;8.528;2022-10-22T15:19:21;21.70;69.90
4578;DHT22;2301;47.354;8.528;2022-10-22T15:21:48;21.70;69.80
4578;DHT22;2301;47.354;8.528;2022-10-22T15:24:15;21.60;69.20
4578;DHT22;2301;47.354;8.528;2022-10-22T15:26:44;21.60;69.20
4578;DHT22;2301;47.354;8.528;2022-10-22T15:29:10;21.60;69.20
4578;DHT22;2301;47.354;8.528;2022-10-22T15:31:46;21.50;69.70
4578;DHT22;2301;47.354;8.528;2022-10-22T15:34:17;21.50;70.10
4578;DHT22;2301;47.354;8.528;2022-10-22T15:36:45;21.40;70.10
4578;DHT22;2301;47.354;8.528;2022-10-22T15:39:11;21.30;70.90
4578;DHT22;2301;47.354;8.528;2022-10-22T15:41:38;21.30;71.80
4578;DHT22;2301;47.354;8.528;2022-10-22T15:44:07;21.20;72.50
4578;DHT22;2301;47.354;8.528;2022-10-22T15:46:36;21.10;72.80
4578;DHT22;2301;47.354;8.528;2022-10-22T15:49:03;21.00;73.20
4578;DHT22;2301;47.354;8.528;2022-10-22T15:51:30;20.90;73.60
4578;DHT22;2301;47.354;8.528;2022-10-22T15:53:58;20.80;73.70
4578;DHT22;2301;47.354;8.528;2022-10-22T15:56:26;20.60;74.10
4578;DHT22;2301;47.354;8.528;2022-10-22T15:58:55;20.50;75.20
4578;DHT22;2301;47.354;8.528;2022-10-22T16:01:25;20.40;74.80
4578;DHT22;2301;47.354;8.528;2022-10-22T16:03:53;20.40;75.20
4578;DHT22;2301;47.354;8.528;2022-10-22T16:06:27;20.30;75.50
4578;DHT22;2301;47.354;8.528;2022-10-22T16:08:56;20.20;75.90
4578;DHT22;2301;47.354;8.528;2022-10-22T16:11:23;20.10;76.30
4578;DHT22;2301;47.354;8.528;2022-10-22T16:13:52;20.00;76.50
4578;DHT22;2301;47.354;8.528;2022-10-22T16:16:20;19.90;76.80
4578;DHT22;2301;47.354;8.528;2022-10-22T16:18:49;19.90;77.10
4578;DHT22;2301;47.354;8.528;2022-10-22T16:21:17;19.80;77.40
4578;DHT22;2301;47.354;8.528;2022-10-22T16:23:44;19.70;77.60
4578;DHT22;2301;47.354;8.528;2022-10-22T16:26:11;19.60;77.80